sensor_id;sensor_type;location;lat;lon;timestamp;P1;durP1;ratioP1;P2;durP2;ratioP2
57295;SDS011;43146;50.976;18.216;2024-02-26T00:01:31;119.40;;;47.50;;
57295;SDS011;43146;50.976;18.216;2024-02-26T00:03:58;106.50;;;38.80;;
57295;SDS011;43146;50.976;18.216;2024-02-26T00:06:24;74.80;;;27.40;;
57295;SDS011;43146;50.976;18.216;2024-02-26T00:08:50;37.20;;;14.20;;
57295;SDS011;43146;50.976;18.216;2024-02-26T00:11:16;35.30;;;14.70;;
57295;SDS011;43146;50.976;18.216;2024-02-26T00:13:42;77.30;;;30.10;;
57295;SDS011;43146;50.976;18.216;2024-02-26T00:16:08;61.10;;;31.30;;
57295;SDS011;43146;50.976;18.216;2024-02-26T00:18:33;40.60;;;22.20;;
57295;SDS011;43146;50.976;18.216;2024-02-26T00:20:59;36.90;;;23.20;;
57295;SDS011;43146;50.976;18.216;2024-02-26T00:23:26;24.00;;;12.10;;
57295;SDS011;43146;50.976;18.216;2024-02-26T00:25:52;31.10;;;14.90;;
57295;SDS011;43146;50.976;18.216;2024-02-26T00:28:18;25.60;;;11.50;;
57295;SDS011;43146;50.976;18.216;2024-02-26T00:30:45;30.90;;;15.00;;
57295;SDS011;43146;50.976;18.216;2024-02-26T00:33:12;31.30;;;14.50;;
57295;SDS011;43146;50.976;18.216;2024-02-26T00:35:39;26.60;;;12.60;;
57295;SDS011;43146;50.976;18.216;2024-02-26T00:38:04;31.90;;;13.00;;
57295;SDS011;43146;50.976;18.216;2024-02-26T00:40:31;28.10;;;13.40;;
57295;SDS011;43146;50.976;18.216;2024-02-26T00:42:56;27.90;;;12.60;;
57295;SDS011;43146;50.976;18.216;2024-02-26T00:45:22;31.60;;;15.10;;
57295;SDS011;43146;50.976;18.216;2024-02-26T00:47:48;27.10;;;11.80;;
57295;SDS011;43146;50.976;18.216;2024-02-26T00:50:14;28.90;;;12.60;;
57295;SDS011;43146;50.976;18.216;2024-02-26T00:52:40;22.90;;;10.20;;
57295;SDS011;43146;50.976;18.216;2024-02-26T00:55:06;26.60;;;12.90;;
57295;SDS011;43146;50.976;18.216;2024-02-26T00:57:33;23.30;;;10.80;;
57295;SDS011;43146;50.976;18.216;2024-02-26T00:59:59;24.30;;;12.30;;
57295;SDS011;43146;50.976;18.216;2024-02-26T01:02:26;23.60;;;9.80;;
57295;SDS011;43146;50.976;18.216;2024-02-26T01:04:51;27.30;;;12.60;;
57295;SDS011;43146;50.976;18.216;2024-02-26T01:07:17;31.40;;;13.10;;
57295;SDS011;43146;50.976;18.216;2024-02-26T01:09:43;27.10;;;12.90;;
57295;SDS011;43146;50.976;18.216;2024-02-26T01:12:09;23.00;;;10.90;;
57295;SDS011;43146;50.976;18.216;2024-02-26T01:14:35;29.30;;;13.40;;
57295;SDS011;43146;50.976;18.216;2024-02-26T01:17:00;22.70;;;9.90;;
57295;SDS011;43146;50.976;18.216;2024-02-26T01:19:26;25.90;;;11.30;;
57295;SDS011;43146;50.976;18.216;2024-02-26T01:21:52;26.10;;;10.90;;
57295;SDS011;43146;50.976;18.216;2024-02-26T01:24:18;29.10;;;11.40;;
57295;SDS011;43146;50.976;18.216;2024-02-26T01:26:44;26.70;;;12.00;;
57295;SDS011;43146;50.976;18.216;2024-02-26T01:29:09;25.20;;;10.90;;
57295;SDS011;43146;50.976;18.216;2024-02-26T01:31:35;22.50;;;11.50;;
57295;SDS011;43146;50.976;18.216;2024-02-26T01:34:01;26.60;;;12.70;;
57295;SDS011;43146;50.976;18.216;2024-02-26T01:36:27;24.10;;;12.00;;
57295;SDS011;43146;50.976;18.216;2024-02-26T01:38:53;25.40;;;11.30;;
57295;SDS011;43146;50.976;18.216;2024-02-26T01:41:18;26.80;;;11.80;;
57295;SDS011;43146;50.976;18.216;2024-02-26T01:43:44;28.90;;;12.80;;
57295;SDS011;43146;50.976;18.216;2024-02-26T01:46:12;32.80;;;12.90;;
57295;SDS011;43146;50.976;18.216;2024-02-26T01:48:40;29.00;;;11.00;;
57295;SDS011;43146;50.976;18.216;2024-02-26T01:51:07;28.50;;;12.60;;
57295;SDS011;43146;50.976;18.216;2024-02-26T01:53:32;26.30;;;10.90;;
57295;SDS011;43146;50.976;18.216;2024-02-26T01:55:58;30.10;;;12.50;;
57295;SDS011;43146;50.976;18.216;2024-02-26T01:58:25;28.70;;;13.30;;
57295;SDS011;43146;50.976;18.216;2024-02-26T02:00:51;31.90;;;13.90;;
57295;SDS011;43146;50.976;18.216;2024-02-26T02:03:16;36.40;;;16.00;;
57295;SDS011;43146;50.976;18.216;2024-02-26T02:05:42;32.80;;;14.50;;
57295;SDS011;43146;50.976;18.216;2024-02-26T02:08:09;31.60;;;13.60;;
57295;SDS011;43146;50.976;18.216;2024-02-26T02:10:36;35.00;;;15.70;;
57295;SDS011;43146;50.976;18.216;2024-02-26T02:13:03;29.60;;;13.30;;
57295;SDS011;43146;50.976;18.216;2024-02-26T02:15:29;30.80;;;14.30;;
57295;SDS011;43146;50.976;18.216;2024-02-26T02:17:54;29.70;;;14.40;;
57295;SDS011;43146;50.976;18.216;2024-02-26T02:20:23;33.70;;;15.20;;
57295;SDS011;43146;50.976;18.216;2024-02-26T02:23:02;32.00;;;14.90;;
57295;SDS011;43146;50.976;18.216;2024-02-26T02:25:28;34.00;;;15.90;;
57295;SDS011;43146;50.976;18.216;2024-02-26T02:27:54;35.20;;;16.40;;
57295;SDS011;43146;50.976;18.216;2024-02-26T02:30:20;33.80;;;15.90;;
57295;SDS011;43146;50.976;18.216;2024-02-26T02:32:47;34.80;;;16.70;;
57295;SDS011;43146;50.976;18.216;2024-02-26T02:35:12;32.70;;;15.50;;
57295;SDS011;43146;50.976;18.216;2024-02-26T02:37:38;30.60;;;15.00;;
57295;SDS011;43146;50.976;18.216;2024-02-26T02:40:04;30.60;;;15.30;;
57295;SDS011;43146;50.976;18.216;2024-02-26T02:42:30;31.60;;;15.50;;
57295;SDS011;43146;50.976;18.216;2024-02-26T02:44:56;31.20;;;14.90;;
57295;SDS011;43146;50.976;18.216;2024-02-26T02:47:22;28.10;;;15.40;;
57295;SDS011;43146;50.976;18.216;2024-02-26T02:49:48;29.70;;;16.20;;
57295;SDS011;43146;50.976;18.216;2024-02-26T02:52:14;33.30;;;16.00;;
57295;SDS011;43146;50.976;18.216;2024-02-26T02:54:39;32.90;;;17.30;;
57295;SDS011;43146;50.976;18.216;2024-02-26T02:57:07;39.30;;;19.10;;
57295;SDS011;43146;50.976;18.216;2024-02-26T02:59:33;35.00;;;18.40;;
57295;SDS011;43146;50.976;18.216;2024-02-26T03:01:59;29.40;;;17.10;;
57295;SDS011;43146;50.976;18.216;2024-02-26T03:04:25;30.30;;;17.50;;
57295;SDS011;43146;50.976;18.216;2024-02-26T03:06:50;31.10;;;16.60;;
57295;SDS011;43146;50.976;18.216;2024-02-26T03:09:17;28.00;;;15.30;;
57295;SDS011;43146;50.976;18.216;2024-02-26T03:11:43;30.50;;;15.70;;
57295;SDS011;43146;50.976;18.216;2024-02-26T03:14:09;32.40;;;16.90;;
57295;SDS011;43146;50.976;18.216;2024-02-26T03:16:35;34.30;;;17.10;;
57295;SDS011;43146;50.976;18.216;2024-02-26T03:19:00;31.90;;;16.20;;
57295;SDS011;43146;50.976;18.216;2024-02-26T03:21:26;34.40;;;17.40;;
57295;SDS011;43146;50.976;18.216;2024-02-26T03:23:52;32.70;;;18.50;;
57295;SDS011;43146;50.976;18.216;2024-02-26T03:26:18;32.10;;;17.30;;
57295;SDS011;43146;50.976;18.216;2024-02-26T03:28:44;40.60;;;21.10;;
57295;SDS011;43146;50.976;18.216;2024-02-26T03:31:10;36.50;;;20.10;;
57295;SDS011;43146;50.976;18.216;2024-02-26T03:33:36;36.30;;;18.10;;
57295;SDS011;43146;50.976;18.216;2024-02-26T03:36:01;35.60;;;17.40;;
57295;SDS011;43146;50.976;18.216;2024-02-26T03:38:28;35.80;;;17.80;;
57295;SDS011;43146;50.976;18.216;2024-02-26T03:40:54;34.30;;;17.60;;
57295;SDS011;43146;50.976;18.216;2024-02-26T03:43:21;32.70;;;17.30;;
57295;SDS011;43146;50.976;18.216;2024-02-26T03:45:46;32.30;;;16.90;;
57295;SDS011;43146;50.976;18.216;2024-02-26T03:48:12;32.40;;;16.90;;
57295;SDS011;43146;50.976;18.216;2024-02-26T03:50:38;32.80;;;16.80;;
57295;SDS011;43146;50.976;18.216;2024-02-26T03:53:04;30.90;;;16.80;;
57295;SDS011;43146;50.976;18.216;2024-02-26T03:55:30;32.90;;;16.80;;
57295;SDS011;43146;50.976;18.216;2024-02-26T03:57:55;30.90;;;16.20;;
57295;SDS011;43146;50.976;18.216;2024-02-26T04:00:21;32.50;;;16.40;;
57295;SDS011;43146;50.976;18.216;2024-02-26T04:02:47;32.70;;;17.10;;
57295;SDS011;43146;50.976;18.216;2024-02-26T04:05:13;30.70;;;16.10;;
57295;SDS011;43146;50.976;18.216;2024-02-26T04:07:42;31.60;;;17.10;;
57295;SDS011;43146;50.976;18.216;2024-02-26T04:10:11;29.50;;;15.90;;
57295;SDS011;43146;50.976;18.216;2024-02-26T04:12:40;34.80;;;17.30;;
57295;SDS011;43146;50.976;18.216;2024-02-26T04:15:07;31.90;;;16.70;;
57295;SDS011;43146;50.976;18.216;2024-02-26T04:17:34;33.10;;;16.60;;
57295;SDS011;43146;50.976;18.216;2024-02-26T04:19:59;33.60;;;17.70;;
57295;SDS011;43146;50.976;18.216;2024-02-26T04:22:25;34.60;;;19.00;;
57295;SDS011;43146;50.976;18.216;2024-02-26T04:24:51;31.50;;;16.60;;
57295;SDS011;43146;50.976;18.216;2024-02-26T04:27:16;32.20;;;16.30;;
57295;SDS011;43146;50.976;18.216;2024-02-26T04:29:42;28.30;;;15.70;;
57295;SDS011;43146;50.976;18.216;2024-02-26T04:32:08;28.40;;;15.60;;
57295;SDS011;43146;50.976;18.216;2024-02-26T04:34:33;28.90;;;15.50;;
57295;SDS011;43146;50.976;18.216;2024-02-26T04:36:59;30.20;;;16.00;;
57295;SDS011;43146;50.976;18.216;2024-02-26T04:39:24;29.00;;;16.10;;
57295;SDS011;43146;50.976;18.216;2024-02-26T04:41:51;29.90;;;15.50;;
57295;SDS011;43146;50.976;18.216;2024-02-26T04:44:16;28.40;;;14.50;;
57295;SDS011;43146;50.976;18.216;2024-02-26T04:46:42;30.10;;;14.90;;
57295;SDS011;43146;50.976;18.216;2024-02-26T04:49:07;29.00;;;14.40;;
57295;SDS011;43146;50.976;18.216;2024-02-26T04:51:33;24.50;;;14.10;;
57295;SDS011;43146;50.976;18.216;2024-02-26T04:53:59;28.20;;;14.10;;
57295;SDS011;43146;50.976;18.216;2024-02-26T04:56:24;27.40;;;12.90;;
57295;SDS011;43146;50.976;18.216;2024-02-26T04:58:50;24.10;;;12.80;;
57295;SDS011;43146;50.976;18.216;2024-02-26T05:01:16;24.60;;;12.80;;
57295;SDS011;43146;50.976;18.216;2024-02-26T05:03:42;24.50;;;12.10;;
57295;SDS011;43146;50.976;18.216;2024-02-26T05:06:08;24.20;;;12.90;;
57295;SDS011;43146;50.976;18.216;2024-02-26T05:08:34;24.30;;;12.10;;
57295;SDS011;43146;50.976;18.216;2024-02-26T05:11:01;23.20;;;12.50;;
57295;SDS011;43146;50.976;18.216;2024-02-26T05:13:28;21.50;;;10.80;;
57295;SDS011;43146;50.976;18.216;2024-02-26T05:15:54;23.10;;;12.20;;
57295;SDS011;43146;50.976;18.216;2024-02-26T05:18:19;23.80;;;11.80;;
57295;SDS011;43146;50.976;18.216;2024-02-26T05:20:45;23.40;;;11.90;;
57295;SDS011;43146;50.976;18.216;2024-02-26T05:23:10;23.10;;;12.30;;
57295;SDS011;43146;50.976;18.216;2024-02-26T05:25:36;26.40;;;11.10;;
57295;SDS011;43146;50.976;18.216;2024-02-26T05:28:02;24.20;;;12.10;;
57295;SDS011;43146;50.976;18.216;2024-02-26T05:30:28;21.80;;;11.70;;
57295;SDS011;43146;50.976;18.216;2024-02-26T05:32:54;21.90;;;11.20;;
57295;SDS011;43146;50.976;18.216;2024-02-26T05:35:19;22.30;;;11.60;;
57295;SDS011;43146;50.976;18.216;2024-02-26T05:37:45;23.20;;;12.00;;
57295;SDS011;43146;50.976;18.216;2024-02-26T05:40:10;24.20;;;12.20;;
57295;SDS011;43146;50.976;18.216;2024-02-26T05:42:36;22.20;;;10.90;;
57295;SDS011;43146;50.976;18.216;2024-02-26T05:45:02;25.90;;;11.50;;
57295;SDS011;43146;50.976;18.216;2024-02-26T05:47:34;20.20;;;10.60;;
57295;SDS011;43146;50.976;18.216;2024-02-26T05:49:59;24.20;;;11.70;;
57295;SDS011;43146;50.976;18.216;2024-02-26T05:52:26;25.50;;;11.70;;
57295;SDS011;43146;50.976;18.216;2024-02-26T05:54:53;19.00;;;10.40;;
57295;SDS011;43146;50.976;18.216;2024-02-26T05:57:19;20.50;;;11.10;;
57295;SDS011;43146;50.976;18.216;2024-02-26T05:59:45;21.80;;;11.30;;
57295;SDS011;43146;50.976;18.216;2024-02-26T06:02:10;21.70;;;11.00;;
57295;SDS011;43146;50.976;18.216;2024-02-26T06:04:36;20.20;;;12.10;;
57295;SDS011;43146;50.976;18.216;2024-02-26T06:07:02;23.80;;;13.20;;
57295;SDS011;43146;50.976;18.216;2024-02-26T06:09:28;22.90;;;11.80;;
57295;SDS011;43146;50.976;18.216;2024-02-26T06:11:54;25.70;;;12.80;;
57295;SDS011;43146;50.976;18.216;2024-02-26T06:14:19;24.40;;;12.00;;
57295;SDS011;43146;50.976;18.216;2024-02-26T06:16:45;23.00;;;10.70;;
57295;SDS011;43146;50.976;18.216;2024-02-26T06:19:12;18.70;;;9.10;;
57295;SDS011;43146;50.976;18.216;2024-02-26T06:21:37;19.40;;;9.20;;
57295;SDS011;43146;50.976;18.216;2024-02-26T06:24:03;21.50;;;10.10;;
57295;SDS011;43146;50.976;18.216;2024-02-26T06:26:29;20.10;;;9.60;;
57295;SDS011;43146;50.976;18.216;2024-02-26T06:28:55;19.70;;;9.50;;
57295;SDS011;43146;50.976;18.216;2024-02-26T06:31:24;18.70;;;9.00;;
57295;SDS011;43146;50.976;18.216;2024-02-26T06:33:49;20.20;;;10.50;;
57295;SDS011;43146;50.976;18.216;2024-02-26T06:36:15;18.10;;;8.60;;
57295;SDS011;43146;50.976;18.216;2024-02-26T06:38:41;19.90;;;8.90;;
57295;SDS011;43146;50.976;18.216;2024-02-26T06:41:07;17.70;;;9.00;;
57295;SDS011;43146;50.976;18.216;2024-02-26T06:43:32;20.60;;;7.90;;
57295;SDS011;43146;50.976;18.216;2024-02-26T06:45:58;17.80;;;8.70;;
57295;SDS011;43146;50.976;18.216;2024-02-26T06:48:24;17.70;;;8.40;;
57295;SDS011;43146;50.976;18.216;2024-02-26T06:50:50;19.10;;;8.30;;
57295;SDS011;43146;50.976;18.216;2024-02-26T06:53:15;18.30;;;8.20;;
57295;SDS011;43146;50.976;18.216;2024-02-26T06:55:41;19.00;;;8.20;;
57295;SDS011;43146;50.976;18.216;2024-02-26T06:58:09;16.90;;;7.30;;
57295;SDS011;43146;50.976;18.216;2024-02-26T07:00:35;19.50;;;8.30;;
57295;SDS011;43146;50.976;18.216;2024-02-26T07:03:00;16.70;;;8.50;;
57295;SDS011;43146;50.976;18.216;2024-02-26T07:05:26;17.50;;;7.50;;
57295;SDS011;43146;50.976;18.216;2024-02-26T07:07:53;16.00;;;7.90;;
57295;SDS011;43146;50.976;18.216;2024-02-26T07:10:19;17.00;;;7.10;;
57295;SDS011;43146;50.976;18.216;2024-02-26T07:12:44;16.10;;;6.90;;
57295;SDS011;43146;50.976;18.216;2024-02-26T07:15:10;16.80;;;7.10;;
57295;SDS011;43146;50.976;18.216;2024-02-26T07:17:36;17.30;;;7.60;;
57295;SDS011;43146;50.976;18.216;2024-02-26T07:20:02;15.10;;;7.00;;
57295;SDS011;43146;50.976;18.216;2024-02-26T07:22:30;14.60;;;6.20;;
57295;SDS011;43146;50.976;18.216;2024-02-26T07:24:56;17.60;;;6.80;;
57295;SDS011;43146;50.976;18.216;2024-02-26T07:27:22;15.10;;;6.60;;
57295;SDS011;43146;50.976;18.216;2024-02-26T07:29:48;17.80;;;7.00;;
57295;SDS011;43146;50.976;18.216;2024-02-26T07:32:13;15.20;;;6.40;;
57295;SDS011;43146;50.976;18.216;2024-02-26T07:34:39;16.60;;;6.70;;
57295;SDS011;43146;50.976;18.216;2024-02-26T07:37:07;17.40;;;6.70;;
57295;SDS011;43146;50.976;18.216;2024-02-26T07:39:33;16.60;;;6.80;;
57295;SDS011;43146;50.976;18.216;2024-02-26T07:41:59;15.60;;;6.50;;
57295;SDS011;43146;50.976;18.216;2024-02-26T07:44:24;15.70;;;7.00;;
57295;SDS011;43146;50.976;18.216;2024-02-26T07:46:50;16.00;;;8.00;;
57295;SDS011;43146;50.976;18.216;2024-02-26T07:49:16;20.40;;;9.20;;
57295;SDS011;43146;50.976;18.216;2024-02-26T07:51:41;21.00;;;8.20;;
57295;SDS011;43146;50.976;18.216;2024-02-26T07:54:07;25.30;;;8.80;;
57295;SDS011;43146;50.976;18.216;2024-02-26T07:56:32;20.50;;;8.90;;
57295;SDS011;43146;50.976;18.216;2024-02-26T07:58:58;21.50;;;9.60;;
57295;SDS011;43146;50.976;18.216;2024-02-26T08:01:24;19.60;;;9.00;;
57295;SDS011;43146;50.976;18.216;2024-02-26T08:03:52;17.00;;;8.10;;
57295;SDS011;43146;50.976;18.216;2024-02-26T08:06:18;21.00;;;9.50;;
57295;SDS011;43146;50.976;18.216;2024-02-26T08:08:44;23.30;;;9.60;;
57295;SDS011;43146;50.976;18.216;2024-02-26T08:11:10;17.40;;;9.00;;
57295;SDS011;43146;50.976;18.216;2024-02-26T08:13:38;16.70;;;8.10;;
57295;SDS011;43146;50.976;18.216;2024-02-26T08:16:04;17.80;;;7.80;;
57295;SDS011;43146;50.976;18.216;2024-02-26T08:18:30;19.00;;;7.80;;
57295;SDS011;43146;50.976;18.216;2024-02-26T08:20:56;19.10;;;8.40;;
57295;SDS011;43146;50.976;18.216;2024-02-26T08:23:21;17.40;;;8.10;;
57295;SDS011;43146;50.976;18.216;2024-02-26T08:25:47;18.40;;;8.10;;
57295;SDS011;43146;50.976;18.216;2024-02-26T08:28:16;17.10;;;7.30;;
57295;SDS011;43146;50.976;18.216;2024-02-26T08:30:43;18.20;;;8.10;;
57295;SDS011;43146;50.976;18.216;2024-02-26T08:33:09;18.00;;;8.00;;
57295;SDS011;43146;50.976;18.216;2024-02-26T08:35:35;20.80;;;9.20;;
57295;SDS011;43146;50.976;18.216;2024-02-26T08:38:02;19.20;;;8.50;;
57295;SDS011;43146;50.976;18.216;2024-02-26T08:40:28;16.70;;;7.70;;
57295;SDS011;43146;50.976;18.216;2024-02-26T08:42:54;17.90;;;7.90;;
57295;SDS011;43146;50.976;18.216;2024-02-26T08:45:20;17.10;;;8.00;;
57295;SDS011;43146;50.976;18.216;2024-02-26T08:47:46;15.60;;;7.30;;
57295;SDS011;43146;50.976;18.216;2024-02-26T08:50:14;14.90;;;6.40;;
57295;SDS011;43146;50.976;18.216;2024-02-26T08:52:40;16.40;;;6.70;;
57295;SDS011;43146;50.976;18.216;2024-02-26T08:55:06;14.60;;;5.70;;
57295;SDS011;43146;50.976;18.216;2024-02-26T08:57:34;18.10;;;6.80;;
57295;SDS011;43146;50.976;18.216;2024-02-26T09:00:00;14.40;;;6.60;;
57295;SDS011;43146;50.976;18.216;2024-02-26T09:02:26;14.20;;;6.40;;
57295;SDS011;43146;50.976;18.216;2024-02-26T09:04:52;14.40;;;6.20;;
57295;SDS011;43146;50.976;18.216;2024-02-26T09:07:20;15.10;;;6.90;;
57295;SDS011;43146;50.976;18.216;2024-02-26T09:09:47;15.80;;;7.10;;
57295;SDS011;43146;50.976;18.216;2024-02-26T09:12:12;14.70;;;5.80;;
57295;SDS011;43146;50.976;18.216;2024-02-26T09:14:38;13.30;;;4.80;;
57295;SDS011;43146;50.976;18.216;2024-02-26T09:17:04;17.40;;;7.00;;
57295;SDS011;43146;50.976;18.216;2024-02-26T09:19:31;13.10;;;5.70;;
57295;SDS011;43146;50.976;18.216;2024-02-26T09:21:56;15.20;;;5.90;;
57295;SDS011;43146;50.976;18.216;2024-02-26T09:24:23;11.90;;;4.50;;
57295;SDS011;43146;50.976;18.216;2024-02-26T09:26:50;10.50;;;4.40;;
57295;SDS011;43146;50.976;18.216;2024-02-26T09:29:16;11.20;;;4.00;;
57295;SDS011;43146;50.976;18.216;2024-02-26T09:31:41;9.90;;;3.50;;
57295;SDS011;43146;50.976;18.216;2024-02-26T09:34:07;9.70;;;3.60;;
57295;SDS011;43146;50.976;18.216;2024-02-26T09:36:33;12.30;;;4.70;;
57295;SDS011;43146;50.976;18.216;2024-02-26T09:38:59;9.20;;;3.20;;
57295;SDS011;43146;50.976;18.216;2024-02-26T09:41:26;8.30;;;2.70;;
57295;SDS011;43146;50.976;18.216;2024-02-26T09:43:54;7.90;;;2.70;;
57295;SDS011;43146;50.976;18.216;2024-02-26T09:46:23;8.60;;;3.00;;
57295;SDS011;43146;50.976;18.216;2024-02-26T09:48:49;5.80;;;2.30;;
57295;SDS011;43146;50.976;18.216;2024-02-26T09:51:15;9.80;;;2.70;;
57295;SDS011;43146;50.976;18.216;2024-02-26T09:53:43;8.70;;;2.70;;
57295;SDS011;43146;50.976;18.216;2024-02-26T09:56:13;5.80;;;2.30;;
57295;SDS011;43146;50.976;18.216;2024-02-26T09:58:39;6.30;;;2.30;;
57295;SDS011;43146;50.976;18.216;2024-02-26T10:01:10;6.20;;;2.20;;
57295;SDS011;43146;50.976;18.216;2024-02-26T10:03:38;8.70;;;2.30;;
57295;SDS011;43146;50.976;18.216;2024-02-26T10:06:07;7.40;;;2.40;;
57295;SDS011;43146;50.976;18.216;2024-02-26T10:08:34;8.30;;;2.80;;
57295;SDS011;43146;50.976;18.216;2024-02-26T10:11:00;7.40;;;2.50;;
57295;SDS011;43146;50.976;18.216;2024-02-26T10:13:26;9.50;;;2.70;;
57295;SDS011;43146;50.976;18.216;2024-02-26T10:15:52;7.20;;;2.60;;
57295;SDS011;43146;50.976;18.216;2024-02-26T10:18:18;9.20;;;2.90;;
57295;SDS011;43146;50.976;18.216;2024-02-26T10:21:00;7.80;;;2.80;;
57295;SDS011;43146;50.976;18.216;2024-02-26T10:23:27;9.10;;;2.70;;
57295;SDS011;43146;50.976;18.216;2024-02-26T10:25:56;11.30;;;2.80;;
57295;SDS011;43146;50.976;18.216;2024-02-26T10:28:22;9.10;;;2.70;;
57295;SDS011;43146;50.976;18.216;2024-02-26T10:30:48;6.80;;;2.40;;
57295;SDS011;43146;50.976;18.216;2024-02-26T10:33:14;8.60;;;2.50;;
57295;SDS011;43146;50.976;18.216;2024-02-26T10:35:45;6.20;;;2.30;;
57295;SDS011;43146;50.976;18.216;2024-02-26T10:38:11;6.40;;;2.10;;
57295;SDS011;43146;50.976;18.216;2024-02-26T10:40:37;6.90;;;2.40;;
57295;SDS011;43146;50.976;18.216;2024-02-26T10:43:03;8.60;;;2.80;;
57295;SDS011;43146;50.976;18.216;2024-02-26T10:45:29;9.70;;;2.80;;
57295;SDS011;43146;50.976;18.216;2024-02-26T10:47:54;7.90;;;2.50;;
57295;SDS011;43146;50.976;18.216;2024-02-26T10:50:20;10.00;;;2.90;;
57295;SDS011;43146;50.976;18.216;2024-02-26T10:52:45;7.00;;;2.30;;
57295;SDS011;43146;50.976;18.216;2024-02-26T10:55:17;6.70;;;2.60;;
57295;SDS011;43146;50.976;18.216;2024-02-26T10:57:44;8.30;;;2.70;;
57295;SDS011;43146;50.976;18.216;2024-02-26T11:00:10;7.80;;;2.70;;
57295;SDS011;43146;50.976;18.216;2024-02-26T11:02:40;7.90;;;2.60;;
57295;SDS011;43146;50.976;18.216;2024-02-26T11:05:06;10.40;;;3.40;;
57295;SDS011;43146;50.976;18.216;2024-02-26T11:07:32;10.80;;;3.60;;
57295;SDS011;43146;50.976;18.216;2024-02-26T11:10:01;10.60;;;3.70;;
57295;SDS011;43146;50.976;18.216;2024-02-26T11:12:29;11.70;;;3.60;;
57295;SDS011;43146;50.976;18.216;2024-02-26T11:14:55;9.90;;;3.30;;
57295;SDS011;43146;50.976;18.216;2024-02-26T11:17:26;12.00;;;3.40;;
57295;SDS011;43146;50.976;18.216;2024-02-26T11:19:57;11.20;;;3.20;;
57295;SDS011;43146;50.976;18.216;2024-02-26T11:22:24;7.80;;;2.80;;
57295;SDS011;43146;50.976;18.216;2024-02-26T11:24:54;10.60;;;3.50;;
57295;SDS011;43146;50.976;18.216;2024-02-26T11:27:45;10.00;;;4.00;;
57295;SDS011;43146;50.976;18.216;2024-02-26T11:30:14;9.00;;;3.30;;
57295;SDS011;43146;50.976;18.216;2024-02-26T11:32:48;12.60;;;3.70;;
57295;SDS011;43146;50.976;18.216;2024-02-26T11:35:14;11.60;;;3.70;;
57295;SDS011;43146;50.976;18.216;2024-02-26T11:37:50;10.30;;;2.80;;
57295;SDS011;43146;50.976;18.216;2024-02-26T11:40:26;8.10;;;2.90;;
57295;SDS011;43146;50.976;18.216;2024-02-26T11:42:52;10.20;;;3.30;;
57295;SDS011;43146;50.976;18.216;2024-02-26T11:45:46;6.00;;;2.20;;
57295;SDS011;43146;50.976;18.216;2024-02-26T11:48:04;8.50;;;2.50;;
57295;SDS011;43146;50.976;18.216;2024-02-26T11:50:38;9.10;;;2.80;;
57295;SDS011;43146;50.976;18.216;2024-02-26T11:53:20;6.50;;;2.20;;
57295;SDS011;43146;50.976;18.216;2024-02-26T11:55:48;7.80;;;2.40;;
57295;SDS011;43146;50.976;18.216;2024-02-26T11:58:34;7.80;;;2.80;;
57295;SDS011;43146;50.976;18.216;2024-02-26T12:01:00;7.20;;;2.60;;
57295;SDS011;43146;50.976;18.216;2024-02-26T12:03:25;6.80;;;2.40;;
57295;SDS011;43146;50.976;18.216;2024-02-26T12:05:51;8.20;;;2.70;;
57295;SDS011;43146;50.976;18.216;2024-02-26T12:08:17;7.50;;;2.50;;
57295;SDS011;43146;50.976;18.216;2024-02-26T12:10:45;6.50;;;2.20;;
57295;SDS011;43146;50.976;18.216;2024-02-26T12:13:12;8.70;;;2.60;;
57295;SDS011;43146;50.976;18.216;2024-02-26T12:15:42;7.10;;;2.40;;
57295;SDS011;43146;50.976;18.216;2024-02-26T12:18:17;7.80;;;2.50;;
57295;SDS011;43146;50.976;18.216;2024-02-26T12:20:43;6.60;;;2.10;;
57295;SDS011;43146;50.976;18.216;2024-02-26T12:23:14;6.60;;;2.40;;
57295;SDS011;43146;50.976;18.216;2024-02-26T12:25:41;6.80;;;2.50;;
57295;SDS011;43146;50.976;18.216;2024-02-26T12:28:09;8.10;;;2.40;;
57295;SDS011;43146;50.976;18.216;2024-02-26T12:30:34;6.10;;;2.30;;
57295;SDS011;43146;50.976;18.216;2024-02-26T12:33:00;26.10;;;10.60;;
57295;SDS011;43146;50.976;18.216;2024-02-26T12:35:27;6.20;;;2.00;;
57295;SDS011;43146;50.976;18.216;2024-02-26T12:37:53;8.80;;;2.40;;
57295;SDS011;43146;50.976;18.216;2024-02-26T12:40:19;6.60;;;2.40;;
57295;SDS011;43146;50.976;18.216;2024-02-26T12:42:46;7.20;;;2.40;;
57295;SDS011;43146;50.976;18.216;2024-02-26T12:45:12;6.40;;;2.20;;
57295;SDS011;43146;50.976;18.216;2024-02-26T12:47:39;8.70;;;2.50;;
57295;SDS011;43146;50.976;18.216;2024-02-26T12:50:09;6.30;;;2.30;;
57295;SDS011;43146;50.976;18.216;2024-02-26T12:52:37;9.90;;;2.90;;
57295;SDS011;43146;50.976;18.216;2024-02-26T12:55:05;7.50;;;2.80;;
57295;SDS011;43146;50.976;18.216;2024-02-26T12:57:32;8.10;;;2.60;;
57295;SDS011;43146;50.976;18.216;2024-02-26T13:00:01;7.20;;;2.70;;
57295;SDS011;43146;50.976;18.216;2024-02-26T13:02:29;8.50;;;3.00;;
57295;SDS011;43146;50.976;18.216;2024-02-26T13:04:56;11.40;;;3.10;;
57295;SDS011;43146;50.976;18.216;2024-02-26T13:07:27;10.70;;;2.60;;
57295;SDS011;43146;50.976;18.216;2024-02-26T13:09:53;9.40;;;2.70;;
57295;SDS011;43146;50.976;18.216;2024-02-26T13:12:18;9.30;;;3.10;;
57295;SDS011;43146;50.976;18.216;2024-02-26T13:14:45;8.40;;;2.70;;
57295;SDS011;43146;50.976;18.216;2024-02-26T13:17:11;9.10;;;3.30;;
57295;SDS011;43146;50.976;18.216;2024-02-26T13:19:37;9.20;;;3.20;;
57295;SDS011;43146;50.976;18.216;2024-02-26T13:22:06;9.90;;;3.10;;
57295;SDS011;43146;50.976;18.216;2024-02-26T13:24:35;9.60;;;3.20;;
57295;SDS011;43146;50.976;18.216;2024-02-26T13:27:02;13.10;;;4.20;;
57295;SDS011;43146;50.976;18.216;2024-02-26T13:29:30;12.10;;;3.30;;
57295;SDS011;43146;50.976;18.216;2024-02-26T13:31:59;23.30;;;6.10;;
57295;SDS011;43146;50.976;18.216;2024-02-26T13:34:25;21.20;;;6.20;;
57295;SDS011;43146;50.976;18.216;2024-02-26T13:36:52;10.90;;;3.30;;
57295;SDS011;43146;50.976;18.216;2024-02-26T13:39:25;8.00;;;3.00;;
57295;SDS011;43146;50.976;18.216;2024-02-26T13:41:52;10.00;;;3.20;;
57295;SDS011;43146;50.976;18.216;2024-02-26T13:44:21;8.60;;;3.10;;
57295;SDS011;43146;50.976;18.216;2024-02-26T13:46:47;10.50;;;3.50;;
57295;SDS011;43146;50.976;18.216;2024-02-26T13:49:20;8.50;;;2.90;;
57295;SDS011;43146;50.976;18.216;2024-02-26T13:51:45;8.00;;;3.20;;
57295;SDS011;43146;50.976;18.216;2024-02-26T13:54:11;9.30;;;2.80;;
57295;SDS011;43146;50.976;18.216;2024-02-26T13:56:39;9.10;;;2.70;;
57295;SDS011;43146;50.976;18.216;2024-02-26T13:59:04;7.10;;;3.00;;
57295;SDS011;43146;50.976;18.216;2024-02-26T14:01:30;10.20;;;2.80;;
57295;SDS011;43146;50.976;18.216;2024-02-26T14:04:00;7.30;;;2.60;;
57295;SDS011;43146;50.976;18.216;2024-02-26T14:06:27;9.90;;;3.00;;
57295;SDS011;43146;50.976;18.216;2024-02-26T14:08:53;10.30;;;2.90;;
57295;SDS011;43146;50.976;18.216;2024-02-26T14:11:20;11.10;;;3.80;;
57295;SDS011;43146;50.976;18.216;2024-02-26T14:13:45;9.30;;;3.10;;
57295;SDS011;43146;50.976;18.216;2024-02-26T14:16:13;10.10;;;3.30;;